Time;durP1;ratioP1;P1;durP2;ratioP2;P2;SDS_P1;SDS_P2;PMS_P1;PMS_P2;Temp;Humidity;BMP_temperature;BMP_pressure;BME280_temperature;BME280_humidity;BME280_pressure;Samples;Min_cycle;Max_cycle;Signal;HPM_P1;HPM_P2
2022/06/04 00:00:42;;;;;;;11.75;4.80;;;12.10;99.90;;;;;;5078185;28;20080;-76
2022/06/04 00:03:08;;;;;;;10.80;4.85;;;12.10;99.90;;;;;;5044548;28;20045;-76
2022/06/04 00:05:40;;;;;;;17.80;6.10;;;12.10;99.90;;;;;;5046309;28;20037;-76
2022/06/04 00:08:08;;;;;;;11.18;5.55;;;12.10;99.90;;;;;;5040207;28;20099;-76
2022/06/04 00:16:07;;;;;;;9.10;6.57;;;12.00;99.90;;;;;;5040203;28;20398;-77
2022/06/04 00:18:34;;;;;;;13.38;6.63;;;12.00;99.90;;;;;;5047994;28;20044;-76
2022/06/04 00:20:59;;;;;;;19.98;7.20;;;12.00;99.90;;;;;;5047281;28;20041;-77
2022/06/04 00:23:26;;;;;;;14.90;6.88;;;12.00;99.90;;;;;;5042904;28;20441;-76
2022/06/04 00:25:55;;;;;;;14.93;7.15;;;12.00;99.90;;;;;;5073472;28;20047;-76
2022/06/04 00:28:22;;;;;;;13.65;7.70;;;12.00;99.90;;;;;;5040041;28;20133;-76
2022/06/04 00:30:49;;;;;;;16.35;8.02;;;12.10;99.90;;;;;;5048015;28;20072;-76
2022/06/04 00:33:18;;;;;;;16.65;7.43;;;12.00;99.90;;;;;;5048848;28;20122;-75
2022/06/04 00:35:46;;;;;;;12.00;7.05;;;12.00;99.90;;;;;;5051321;28;20060;-76
2022/06/04 00:38:14;;;;;;;12.05;7.88;;;12.00;99.90;;;;;;5045534;28;20076;-76
2022/06/04 00:40:42;;;;;;;17.58;7.45;;;11.90;99.90;;;;;;5048082;28;20045;-76
2022/06/04 00:43:18;;;;;;;14.90;6.82;;;11.90;99.90;;;;;;5043242;28;20053;-76
2022/06/04 00:46:21;;;;;;;17.58;7.05;;;11.90;99.90;;;;;;5050354;28;20477;-76
2022/06/04 00:48:47;;;;;;;15.95;6.72;;;11.90;99.90;;;;;;5042111;28;20107;-76
2022/06/04 00:51:16;;;;;;;18.55;7.05;;;11.90;99.90;;;;;;5047520;28;20044;-76
2022/06/04 00:53:42;;;;;;;17.15;7.20;;;11.90;99.90;;;;;;5039918;28;20040;-76
2022/06/04 00:56:34;;;;;;;14.57;7.25;;;11.90;99.90;;;;;;5046035;28;20056;-77
2022/06/04 00:59:28;;;;;;;15.75;7.18;;;11.90;99.90;;;;;;5043142;28;20041;-77
2022/06/04 01:02:12;;;;;;;15.15;7.47;;;11.80;99.90;;;;;;5048861;28;20045;-76
2022/06/04 01:04:48;;;;;;;14.90;6.15;;;11.80;99.90;;;;;;5046794;28;20674;-76
2022/06/04 01:07:47;;;;;;;15.52;6.40;;;11.80;99.90;;;;;;5043595;28;20037;-76
2022/06/04 01:10:27;;;;;;;16.65;6.90;;;11.80;99.90;;;;;;5037058;28;20064;-77
2022/06/04 01:13:27;;;;;;;18.13;7.53;;;11.80;99.90;;;;;;5038999;28;20157;-77
2022/06/04 01:16:08;;;;;;;13.10;6.45;;;11.80;99.90;;;;;;5042377;28;20134;-76
2022/06/04 01:18:41;;;;;;;14.20;6.72;;;11.80;99.90;;;;;;5048220;28;20047;-76
2022/06/04 01:21:30;;;;;;;16.55;6.38;;;11.70;99.90;;;;;;5047473;28;20075;-76
2022/06/04 01:24:28;;;;;;;17.90;6.40;;;11.70;99.90;;;;;;5046918;28;20061;-76
2022/06/04 01:27:00;;;;;;;16.50;6.93;;;11.70;99.90;;;;;;5042734;28;20045;-76
2022/06/04 01:29:40;;;;;;;13.90;6.05;;;11.70;99.90;;;;;;5047232;28;21389;-76
2022/06/04 01:32:13;;;;;;;11.52;5.50;;;11.70;99.90;;;;;;5078542;28;20056;-76
2022/06/04 01:34:49;;;;;;;14.60;6.20;;;11.70;99.90;;;;;;5041293;28;20531;-77
2022/06/04 01:37:22;;;;;;;14.43;6.05;;;11.70;99.90;;;;;;5043939;28;20033;-73
2022/06/04 01:42:36;;;;;;;12.57;5.47;;;11.60;99.90;;;;;;5047189;28;20556;-76
2022/06/04 01:45:08;;;;;;;13.52;6.72;;;11.60;99.90;;;;;;5047466;28;20110;-76
2022/06/04 01:47:34;;;;;;;;;;;11.60;99.90;;;;;;5047901;28;20041;-76
2022/06/04 01:50:03;;;;;;;12.10;5.82;;;11.50;99.90;;;;;;5043941;28;19932;-76
2022/06/04 01:52:33;;;;;;;13.52;6.20;;;11.50;99.90;;;;;;5078933;28;20052;-76
2022/06/04 01:55:34;;;;;;;12.45;6.38;;;11.60;99.90;;;;;;5046166;28;20140;-76
2022/06/04 01:58:04;;;;;;;10.30;5.30;;;11.50;99.90;;;;;;5047533;28;20068;-76
2022/06/04 02:00:37;;;;;;;13.13;6.60;;;11.50;99.90;;;;;;5044948;28;20044;-76
2022/06/04 02:03:39;;;;;;;14.05;6.38;;;11.50;99.90;;;;;;5044503;28;20057;-76
2022/06/04 02:06:16;;;;;;;11.90;5.72;;;11.50;99.90;;;;;;5040697;28;20052;-76
2022/06/04 02:08:52;;;;;;;13.02;5.88;;;11.30;99.90;;;;;;5077469;28;20072;-76
2022/06/04 02:11:21;;;;;;;14.25;6.22;;;11.50;99.90;;;;;;5045423;28;20056;-76
2022/06/04 02:13:49;;;;;;;10.10;4.75;;;11.50;99.90;;;;;;5045730;28;20460;-76
2022/06/04 02:16:26;;;;;;;13.13;4.90;;;11.50;99.90;;;;;;5047526;28;20527;-76
2022/06/04 02:18:54;;;;;;;10.18;5.65;;;11.50;99.90;;;;;;5045714;28;20171;-77
2022/06/04 02:21:20;;;;;;;10.15;4.93;;;11.60;99.90;;;;;;5047569;28;20061;-76
2022/06/04 02:23:50;;;;;;;11.75;5.20;;;11.60;99.90;;;;;;5045046;28;20198;-76
2022/06/04 02:26:17;;;;;;;10.30;5.43;;;11.60;99.90;;;;;;5047300;28;20064;-76
2022/06/04 02:28:44;;;;;;;9.63;5.22;;;11.60;99.90;;;;;;5046526;28;20042;-74
2022/06/04 02:31:31;;;;;;;9.00;5.05;;;11.60;99.90;;;;;;5047253;28;20051;-75
2022/06/04 02:34:15;;;;;;;11.45;5.55;;;11.60;99.90;;;;;;5040108;28;20124;-76
2022/06/04 02:37:19;;;;;;;16.90;5.55;;;11.60;99.90;;;;;;5045739;28;20045;-74
2022/06/04 02:39:54;;;;;;;11.80;5.40;;;11.60;99.90;;;;;;4998835;28;20497;-75
2022/06/04 02:42:32;;;;;;;11.68;6.13;;;11.60;99.90;;;;;;4985990;28;20052;-75
2022/06/04 02:45:04;;;;;;;13.85;6.43;;;11.60;99.90;;;;;;5020396;28;20064;-75
2022/06/04 02:47:43;;;;;;;14.68;5.95;;;11.70;99.90;;;;;;5045608;28;20045;-75
2022/06/04 02:50:24;;;;;;;15.15;6.40;;;11.70;99.90;;;;;;5039540;28;20041;-74
2022/06/04 02:52:52;;;;;;;12.35;5.90;;;11.70;99.90;;;;;;5043431;28;20044;-75
2022/06/04 02:55:23;;;;;;;11.25;5.68;;;11.70;99.90;;;;;;5047454;28;20124;-75
2022/06/04 02:57:52;;;;;;;9.65;6.03;;;11.70;99.90;;;;;;5048656;28;20041;-76
2022/06/04 03:00:22;;;;;;;13.40;6.50;;;11.70;99.90;;;;;;5044360;28;20076;-74
2022/06/04 03:02:49;;;;;;;14.10;6.85;;;11.70;99.90;;;;;;5043739;28;20041;-75
2022/06/04 03:05:20;;;;;;;13.15;6.28;;;11.80;99.90;;;;;;5040745;28;20386;-75
2022/06/04 03:07:49;;;;;;;13.70;6.45;;;11.80;99.90;;;;;;5043788;28;20058;-75
2022/06/04 03:10:22;;;;;;;11.10;5.13;;;11.80;99.90;;;;;;5048169;28;20497;-75
2022/06/04 03:12:48;;;;;;;10.40;5.25;;;11.70;99.90;;;;;;5042180;28;20041;-75
2022/06/04 03:15:14;;;;;;;11.48;5.60;;;11.80;99.90;;;;;;5043621;28;20047;-75
2022/06/04 03:17:42;;;;;;;10.27;5.68;;;11.80;99.90;;;;;;5040575;28;20081;-75
2022/06/04 03:20:09;;;;;;;12.73;5.22;;;11.80;99.90;;;;;;5069009;28;20656;-75
2022/06/04 03:22:35;;;;;;;11.20;5.20;;;11.80;99.90;;;;;;5044307;28;20055;-75
2022/06/04 03:25:02;;;;;;;9.48;4.95;;;11.70;99.90;;;;;;5046146;28;20048;-75
2022/06/04 03:27:28;;;;;;;8.60;4.63;;;11.90;99.90;;;;;;5047917;28;20397;-75
2022/06/04 03:29:53;;;;;;;7.75;4.18;;;11.90;99.90;;;;;;5043387;28;20049;-75
2022/06/04 03:32:19;;;;;;;7.55;3.60;;;11.90;99.90;;;;;;5044246;28;20463;-75
2022/06/04 03:34:44;;;;;;;8.25;4.07;;;11.90;99.90;;;;;;5046054;28;20045;-75
2022/06/04 03:37:10;;;;;;;11.32;4.45;;;11.80;99.90;;;;;;5044358;28;20116;-74
2022/06/04 03:39:38;;;;;;;10.77;4.60;;;11.80;99.90;;;;;;5046858;28;20129;-74
2022/06/04 03:42:04;;;;;;;8.30;3.50;;;11.90;99.90;;;;;;5041609;28;20442;-75
2022/06/04 03:44:30;;;;;;;6.97;4.32;;;11.80;99.90;;;;;;5043582;28;20041;-75
2022/06/04 03:46:56;;;;;;;8.90;3.85;;;11.80;99.90;;;;;;5045302;28;20500;-74
2022/06/04 03:49:21;;;;;;;7.28;3.88;;;11.80;99.90;;;;;;5045119;28;20480;-74
2022/06/04 03:51:47;;;;;;;5.78;3.85;;;11.90;99.90;;;;;;5045234;28;20051;-75
2022/06/04 03:54:13;;;;;;;12.35;3.83;;;11.80;99.90;;;;;;5045645;28;20063;-75
2022/06/04 03:56:40;;;;;;;11.40;4.07;;;11.70;99.90;;;;;;5045834;28;20037;-75
2022/06/04 03:59:08;;;;;;;9.23;4.15;;;11.70;99.90;;;;;;5044620;28;20111;-75
2022/06/04 04:01:34;;;;;;;7.22;3.45;;;11.80;99.90;;;;;;5039849;28;20041;-75
2022/06/04 04:04:01;;;;;;;5.65;3.60;;;11.80;99.90;;;;;;5046699;28;20055;-75
2022/06/04 04:06:30;;;;;;;10.55;3.47;;;11.70;99.90;;;;;;5044291;28;20045;-75
2022/06/04 04:08:56;;;;;;;5.97;3.92;;;11.80;99.90;;;;;;5038691;28;20633;-75
2022/06/04 04:11:25;;;;;;;6.45;3.40;;;11.80;99.90;;;;;;5046123;28;20053;-75
2022/06/04 04:13:57;;;;;;;7.95;4.05;;;11.90;99.90;;;;;;5046396;28;20053;-75
2022/06/04 04:16:25;;;;;;;9.27;3.83;;;11.80;99.90;;;;;;5042682;28;20055;-74
2022/06/04 04:18:51;;;;;;;10.15;3.78;;;11.80;99.90;;;;;;5048152;28;20052;-75
2022/06/04 04:21:20;;;;;;;11.77;4.25;;;11.80;99.90;;;;;;5045329;28;20075;-75
2022/06/04 04:23:46;;;;;;;9.13;4.50;;;11.80;99.90;;;;;;5042812;28;20083;-75
2022/06/04 04:26:13;;;;;;;9.02;4.15;;;11.80;99.90;;;;;;5043976;28;20041;-75
2022/06/04 04:28:39;;;;;;;7.05;4.30;;;11.80;99.90;;;;;;5041644;28;20045;-75
2022/06/04 04:31:18;;;;;;;9.98;4.13;;;11.80;99.90;;;;;;5043762;28;20056;-75
2022/06/04 04:33:44;;;;;;;9.68;4.55;;;11.80;99.90;;;;;;5042528;28;20049;-75
2022/06/04 04:36:10;;;;;;;7.60;3.92;;;11.90;99.90;;;;;;5046874;28;20486;-75
2022/06/04 04:38:36;;;;;;;7.90;4.28;;;11.90;99.90;;;;;;5044517;28;20143;-75
2022/06/04 04:41:07;;;;;;;6.78;4.10;;;11.90;99.90;;;;;;5045191;28;20053;-75
2022/06/04 04:43:33;;;;;;;8.98;4.93;;;11.90;99.90;;;;;;5075626;28;20123;-75
2022/06/04 04:46:04;;;;;;;7.97;4.43;;;12.00;99.90;;;;;;5045022;28;20136;-74
2022/06/04 04:48:29;;;;;;;9.68;4.15;;;12.00;99.90;;;;;;5044026;28;20696;-74
2022/06/04 04:50:55;;;;;;;8.05;4.10;;;12.10;99.90;;;;;;5043959;28;20025;-74
2022/06/04 04:53:21;;;;;;;14.50;4.72;;;12.10;99.90;;;;;;5041882;28;20037;-74
2022/06/04 04:55:48;;;;;;;5.70;3.97;;;12.20;99.90;;;;;;5047099;28;20463;-75
2022/06/04 04:58:13;;;;;;;7.38;4.13;;;12.10;99.90;;;;;;5046226;28;20073;-74
2022/06/04 05:00:39;;;;;;;5.53;3.88;;;12.10;99.90;;;;;;5036086;28;21815;-75
2022/06/04 05:03:04;;;;;;;11.23;5.00;;;12.20;99.90;;;;;;5046487;28;20123;-76
2022/06/04 05:05:30;;;;;;;6.75;3.90;;;12.20;99.90;;;;;;5048217;28;20072;-75
2022/06/04 05:07:56;;;;;;;7.97;3.92;;;12.20;99.90;;;;;;5038921;28;20084;-75
2022/06/04 05:10:22;;;;;;;6.05;4.40;;;12.30;99.90;;;;;;5045506;28;20029;-75
2022/06/04 05:12:56;;;;;;;8.35;4.47;;;12.30;99.90;;;;;;5043086;28;20055;-75
2022/06/04 05:15:23;;;;;;;10.57;4.68;;;12.30;99.90;;;;;;5043357;28;20051;-75
2022/06/04 05:17:49;;;;;;;7.20;4.13;;;12.40;99.90;;;;;;5045612;28;20051;-74
2022/06/04 05:20:15;;;;;;;9.38;4.38;;;12.40;99.90;;;;;;5047352;28;20037;-75
2022/06/04 05:22:42;;;;;;;11.07;3.95;;;12.40;99.90;;;;;;5047556;28;20463;-75
2022/06/04 05:25:08;;;;;;;9.18;4.30;;;12.50;99.90;;;;;;5047859;28;20052;-74
2022/06/04 05:27:34;;;;;;;10.82;4.40;;;12.50;99.90;;;;;;5043990;28;20037;-74
2022/06/04 05:30:00;;;;;;;11.25;4.30;;;12.50;99.90;;;;;;5049656;28;20047;-74
2022/06/04 05:32:25;;;;;;;8.75;4.70;;;12.60;99.90;;;;;;5036186;28;20536;-74
2022/06/04 05:34:51;;;;;;;7.00;4.40;;;12.60;99.90;;;;;;5041920;28;20044;-74
2022/06/04 05:37:17;;;;;;;6.30;4.10;;;12.60;99.90;;;;;;5047114;28;20045;-75
2022/06/04 05:39:42;;;;;;;7.18;4.53;;;12.70;99.90;;;;;;5048267;28;20152;-74
2022/06/04 05:42:08;;;;;;;7.55;4.75;;;12.70;99.90;;;;;;5045259;28;20044;-75
2022/06/04 05:44:34;;;;;;;7.43;3.58;;;12.80;99.90;;;;;;5049268;28;20053;-75
2022/06/04 05:47:00;;;;;;;6.60;4.13;;;12.80;99.90;;;;;;5047573;28;20051;-75
2022/06/04 05:49:26;;;;;;;8.73;5.20;;;12.80;99.90;;;;;;5048083;28;20140;-76
2022/06/04 05:51:52;;;;;;;10.63;4.82;;;12.90;99.90;;;;;;5045694;28;20051;-75
2022/06/04 05:54:19;;;;;;;10.73;4.82;;;12.90;99.90;;;;;;5045762;28;20056;-75
2022/06/04 05:56:48;;;;;;;10.25;4.80;;;13.10;99.90;;;;;;5047295;28;20049;-75
2022/06/04 05:59:16;;;;;;;8.45;4.60;;;13.00;99.90;;;;;;5048479;28;20378;-74
2022/06/04 06:01:43;;;;;;;5.53;4.05;;;13.10;99.90;;;;;;5036297;28;20051;-75
2022/06/04 06:04:17;;;;;;;8.65;4.55;;;13.10;99.90;;;;;;5044312;28;20575;-76
2022/06/04 06:06:46;;;;;;;9.60;3.95;;;13.20;99.90;;;;;;5046290;28;20496;-75
2022/06/04 06:09:13;;;;;;;9.82;4.03;;;13.20;99.90;;;;;;5044776;28;20400;-75
2022/06/04 06:11:40;;;;;;;7.70;4.43;;;13.20;99.90;;;;;;5039864;28;20037;-75
2022/06/04 06:14:09;;;;;;;11.20;4.32;;;13.30;99.90;;;;;;5047751;28;20072;-75
2022/06/04 06:16:39;;;;;;;6.30;3.88;;;13.40;99.90;;;;;;5045188;28;20128;-76
2022/06/04 06:19:05;;;;;;;6.78;4.55;;;13.40;99.90;;;;;;5033273;28;20699;-74
2022/06/04 06:21:32;;;;;;;10.00;3.90;;;13.50;99.90;;;;;;5035717;28;20049;-75
2022/06/04 06:23:59;;;;;;;6.65;3.90;;;13.40;99.90;;;;;;5041236;28;20132;-75
2022/06/04 06:26:27;;;;;;;6.82;4.03;;;13.50;99.90;;;;;;5077067;28;20037;-74
2022/06/04 06:28:54;;;;;;;8.25;4.20;;;13.50;99.90;;;;;;5045968;28;20054;-75
2022/06/04 06:31:23;;;;;;;10.90;4.03;;;13.60;99.90;;;;;;5045436;28;20470;-75
2022/06/04 06:33:53;;;;;;;5.28;3.47;;;13.60;99.90;;;;;;5047682;28;20048;-74
2022/06/04 06:36:20;;;;;;;8.77;4.00;;;13.70;99.90;;;;;;5047973;28;20112;-74
2022/06/04 06:38:47;;;;;;;8.13;4.00;;;13.80;99.90;;;;;;5046334;28;20194;-75
2022/06/04 06:41:15;;;;;;;10.65;3.95;;;13.80;99.90;;;;;;5033692;28;20136;-73
2022/06/04 06:43:47;;;;;;;6.20;3.80;;;13.80;99.90;;;;;;5046847;28;20131;-74
2022/06/04 06:46:27;;;;;;;10.85;3.65;;;13.80;99.90;;;;;;5050117;28;20132;-75
2022/06/04 06:48:58;;;;;;;7.45;3.70;;;13.90;99.90;;;;;;5045224;28;20040;-75
2022/06/04 06:51:26;;;;;;;9.10;4.00;;;13.90;99.90;;;;;;5037383;28;20056;-76
2022/06/04 06:53:55;;;;;;;7.80;3.95;;;13.80;99.90;;;;;;5042921;28;20118;-75
2022/06/04 06:56:27;;;;;;;6.18;3.88;;;14.00;99.90;;;;;;5045482;28;20381;-73
2022/06/04 06:58:53;;;;;;;6.10;3.47;;;14.00;99.90;;;;;;5036074;28;20045;-74
2022/06/04 07:01:21;;;;;;;8.15;3.58;;;14.10;99.90;;;;;;5045905;28;20049;-74
2022/06/04 07:03:48;;;;;;;6.70;4.03;;;14.10;99.90;;;;;;5040910;28;20147;-74
2022/06/04 07:06:15;;;;;;;7.15;3.88;;;14.20;99.90;;;;;;5042712;28;20087;-74
2022/06/04 07:08:42;;;;;;;6.22;3.30;;;14.20;99.90;;;;;;5042187;28;20047;-75
2022/06/04 07:11:09;;;;;;;9.07;4.07;;;14.30;99.90;;;;;;5035785;28;20072;-74
2022/06/04 07:13:35;;;;;;;9.90;4.05;;;14.20;99.90;;;;;;5036153;28;20043;-74
2022/06/04 07:16:01;;;;;;;12.88;4.03;;;14.20;99.90;;;;;;5031069;28;20092;-74
2022/06/04 07:18:26;;;;;;;7.72;4.07;;;14.30;99.90;;;;;;5042933;28;20045;-74
2022/06/04 07:20:53;;;;;;;8.77;4.32;;;14.40;99.90;;;;;;5041076;28;20764;-74
2022/06/04 07:23:18;;;;;;;5.85;3.25;;;14.50;99.90;;;;;;5031016;28;20083;-74
2022/06/04 07:25:46;;;;;;;6.68;3.45;;;14.50;99.90;;;;;;5044960;28;20067;-73
2022/06/04 07:28:14;;;;;;;10.18;3.63;;;14.60;99.90;;;;;;5029745;28;20059;-74
2022/06/04 07:30:39;;;;;;;6.47;2.88;;;14.60;99.90;;;;;;5032429;28;20068;-73
2022/06/04 07:33:06;;;;;;;10.13;3.13;;;14.70;99.90;;;;;;5037591;28;20048;-74
2022/06/04 07:35:32;;;;;;;6.63;3.20;;;14.60;99.90;;;;;;5033845;28;20128;-74
2022/06/04 07:37:58;;;;;;;7.80;3.90;;;14.70;99.90;;;;;;5039860;28;20048;-74
2022/06/04 07:40:24;;;;;;;8.68;3.72;;;14.70;99.90;;;;;;5036154;28;20075;-74
2022/06/04 07:42:50;;;;;;;7.57;3.30;;;14.80;99.90;;;;;;5037835;28;20124;-75
2022/06/04 07:45:15;;;;;;;5.35;3.10;;;14.90;99.90;;;;;;5035443;28;20116;-72
2022/06/04 07:47:41;;;;;;;7.10;3.55;;;14.90;99.90;;;;;;5045893;28;20151;-73
2022/06/04 07:50:08;;;;;;;5.18;3.22;;;14.90;99.90;;;;;;5039425;28;20082;-73
2022/06/04 07:52:34;;;;;;;10.10;3.15;;;14.90;99.90;;;;;;5041049;28;20136;-72
2022/06/04 07:55:00;;;;;;;8.27;3.83;;;14.90;99.90;;;;;;5042825;28;20148;-72
2022/06/04 07:57:26;;;;;;;8.35;3.15;;;14.90;99.90;;;;;;5046010;28;20194;-72
2022/06/04 07:59:52;;;;;;;9.35;3.10;;;14.90;99.90;;;;;;5043958;28;20048;-73
2022/06/04 08:02:21;;;;;;;5.22;3.22;;;14.90;99.90;;;;;;5046246;28;20485;-72
2022/06/04 08:04:47;;;;;;;8.02;3.30;;;14.90;99.90;;;;;;5046909;28;20080;-72
2022/06/04 08:07:13;;;;;;;6.47;3.17;;;14.80;99.90;;;;;;5042618;28;20079;-72
2022/06/04 08:09:39;;;;;;;5.38;3.10;;;14.80;99.90;;;;;;5047295;28;20055;-73
2022/06/04 08:12:05;;;;;;;5.72;3.15;;;14.80;99.90;;;;;;5044363;28;20345;-73
2022/06/04 08:14:31;;;;;;;8.45;3.72;;;14.80;99.90;;;;;;5048758;28;20083;-73
2022/06/04 08:17:00;;;;;;;6.20;3.72;;;14.90;99.90;;;;;;5043940;28;20094;-73
2022/06/04 08:19:29;;;;;;;5.38;3.20;;;14.90;99.90;;;;;;5043676;28;20060;-73
2022/06/04 08:21:55;;;;;;;6.78;3.38;;;15.00;99.90;;;;;;5043032;28;20060;-73
2022/06/04 08:24:22;;;;;;;11.93;3.22;;;15.00;99.90;;;;;;5039928;28;20048;-73
2022/06/04 08:26:53;;;;;;;6.55;2.88;;;15.00;99.90;;;;;;5047737;28;20052;-74
2022/06/04 08:29:22;;;;;;;7.63;3.15;;;15.00;99.90;;;;;;5047479;28;20384;-72
2022/06/04 08:31:48;;;;;;;6.20;3.30;;;15.20;99.90;;;;;;5030392;28;20527;-73
2022/06/04 08:34:14;;;;;;;6.97;3.20;;;15.10;99.90;;;;;;5031111;28;20084;-72
2022/06/04 08:36:42;;;;;;;6.85;3.10;;;15.20;99.90;;;;;;5030339;28;20136;-75
2022/06/04 08:39:07;;;;;;;8.57;2.75;;;15.20;99.90;;;;;;5030596;28;20156;-73
2022/06/04 08:41:44;;;;;;;8.43;2.92;;;15.20;99.90;;;;;;5045861;28;20342;-75
2022/06/04 08:44:19;;;;;;;6.25;3.50;;;15.30;99.90;;;;;;5044458;28;20053;-73
2022/06/04 08:47:02;;;;;;;6.57;3.13;;;15.30;99.90;;;;;;5033088;28;20171;-73
2022/06/04 08:49:31;;;;;;;6.90;3.03;;;15.40;99.90;;;;;;5035288;28;20202;-74
2022/06/04 08:52:03;;;;;;;5.72;3.17;;;15.50;99.90;;;;;;5047841;28;20044;-74
2022/06/04 08:57:32;;;;;;;7.65;3.00;;;15.50;99.90;;;;;;5048161;28;20135;-80
2022/06/04 09:00:17;;;;;;;3.97;2.60;;;15.50;99.90;;;;;;5050084;28;20045;-76
2022/06/04 09:03:11;;;;;;;7.43;3.53;;;15.50;99.90;;;;;;5048890;28;20076;-74
2022/06/04 09:06:04;;;;;;;6.82;3.28;;;15.60;99.90;;;;;;5041339;28;20481;-73
2022/06/04 09:08:56;;;;;;;4.80;2.78;;;15.60;99.90;;;;;;5045488;28;20075;-74
2022/06/04 09:11:38;;;;;;;4.30;2.78;;;15.70;99.90;;;;;;5047095;28;20457;-75
2022/06/04 09:14:29;;;;;;;5.68;2.80;;;15.80;99.90;;;;;;5079693;28;20073;-75
2022/06/04 09:17:05;;;;;;;6.03;3.00;;;15.80;99.90;;;;;;5050912;28;20056;-74
2022/06/04 09:19:36;;;;;;;4.72;2.47;;;15.80;99.90;;;;;;5044848;28;20038;-75
2022/06/04 09:22:21;;;;;;;5.63;2.80;;;15.90;99.90;;;;;;5048343;28;20053;-74
2022/06/04 09:24:53;;;;;;;5.13;3.03;;;15.90;99.90;;;;;;5038013;28;20037;-76
2022/06/04 09:27:40;;;;;;;10.23;3.20;;;15.90;99.90;;;;;;5037938;28;20033;-75
2022/06/04 09:30:32;;;;;;;4.55;2.90;;;15.90;99.90;;;;;;5048991;28;20041;-73
2022/06/04 09:33:22;;;;;;;9.93;2.75;;;15.90;99.90;;;;;;5069742;28;20041;-76
2022/06/04 09:35:48;;;;;;;6.45;2.70;;;15.90;99.90;;;;;;5047358;28;20052;-75
2022/06/04 09:38:29;;;;;;;6.63;3.00;;;15.90;99.90;;;;;;5046530;28;20037;-74
2022/06/04 09:41:19;;;;;;;5.13;2.60;;;16.00;99.90;;;;;;5042149;28;20085;-74
2022/06/04 09:43:45;;;;;;;9.35;2.70;;;16.10;99.90;;;;;;5072199;28;20483;-73
2022/06/04 09:46:13;;;;;;;10.45;3.35;;;16.10;99.90;;;;;;5049784;28;20083;-73
2022/06/04 09:48:49;;;;;;;8.57;2.95;;;16.20;99.90;;;;;;5046131;28;20052;-73
2022/06/04 09:51:22;;;;;;;4.63;2.90;;;16.20;99.90;;;;;;5043387;28;20043;-73
2022/06/04 09:53:54;;;;;;;5.15;2.50;;;16.30;99.90;;;;;;5038307;28;20111;-74
2022/06/04 09:56:42;;;;;;;9.73;2.72;;;16.30;99.90;;;;;;5049710;28;20050;-74
2022/06/04 09:59:25;;;;;;;5.93;3.30;;;16.40;99.90;;;;;;5039293;28;20063;-72
2022/06/04 10:02:00;;;;;;;9.55;3.47;;;16.40;99.90;;;;;;5040803;28;20051;-73
2022/06/04 10:04:47;;;;;;;6.97;3.05;;;16.50;99.90;;;;;;5038789;28;20055;-73
2022/06/04 10:07:28;;;;;;;8.98;3.15;;;16.50;99.90;;;;;;5038848;28;20163;-73
2022/06/04 10:09:57;;;;;;;5.10;3.40;;;16.50;99.90;;;;;;5048128;28;20158;-76
2022/06/04 10:15:41;;;;;;;7.25;2.80;;;16.60;99.90;;;;;;5043200;28;20103;-75
2022/06/04 10:18:22;;;;;;;6.93;3.17;;;16.50;99.90;;;;;;5045710;28;20080;-74
2022/06/04 10:20:57;;;;;;;;;;;16.50;99.90;;;;;;5040808;28;20071;-74
2022/06/04 10:23:23;;;;;;;8.55;3.33;;;16.50;99.90;;;;;;5043630;28;20119;-74
2022/06/04 10:25:58;;;;;;;8.48;3.88;;;16.50;99.90;;;;;;5035051;28;20120;-74
2022/06/04 10:28:52;;;;;;;6.78;3.55;;;16.60;99.90;;;;;;5045492;28;20449;-74
2022/06/04 10:31:26;;;;;;;6.35;3.10;;;16.60;99.90;;;;;;5043904;28;20052;-74
2022/06/04 10:34:27;;;;;;;8.57;3.75;;;16.60;99.90;;;;;;5045724;28;20060;-74
2022/06/04 10:37:12;;;;;;;7.35;3.78;;;16.60;99.90;;;;;;5023258;28;20584;-73
2022/06/04 10:39:48;;;;;;;7.28;3.45;;;16.60;99.90;;;;;;5044210;28;20150;-73
2022/06/04 10:42:35;;;;;;;5.68;3.50;;;16.60;99.90;;;;;;5028981;28;20133;-73
2022/06/04 10:45:16;;;;;;;7.75;3.55;;;16.70;99.90;;;;;;5034221;28;20128;-73
2022/06/04 10:48:03;;;;;;;7.95;3.40;;;16.80;99.90;;;;;;5044939;28;20095;-73
2022/06/04 10:51:25;;;;;;;7.95;3.45;;;16.80;99.90;;;;;;5029192;28;20041;-73
2022/06/04 10:53:45;;;;;;;7.65;3.88;;;17.10;99.90;;;;;;5030638;28;20045;-73
2022/06/04 10:56:16;;;;;;;9.07;3.38;;;16.90;99.90;;;;;;5034630;28;20409;-73
2022/06/04 10:58:45;;;;;;;;;;;17.00;99.90;;;;;;5047838;28;20037;-73
2022/06/04 11:01:31;;;;;;;4.50;2.83;;;17.00;99.90;;;;;;5074646;28;20019;-75
2022/06/04 11:04:01;;;;;;;6.00;2.95;;;17.10;99.90;;;;;;5039102;28;20529;-75
2022/06/04 11:06:38;;;;;;;8.75;3.17;;;17.10;99.90;;;;;;5046424;28;20129;-75
2022/06/04 11:09:19;;;;;;;6.05;3.00;;;17.20;99.90;;;;;;5030219;28;20053;-75
2022/06/04 11:12:30;;;;;;;6.00;2.80;;;17.30;99.90;;;;;;5042647;28;20063;-74
2022/06/04 11:15:03;;;;;;;4.82;2.78;;;17.40;99.90;;;;;;5061686;28;20069;-76
2022/06/04 11:17:50;;;;;;;6.75;3.70;;;17.40;99.90;;;;;;5047305;28;20116;-75
2022/06/04 11:20:18;;;;;;;6.07;3.65;;;17.50;99.90;;;;;;5041595;28;20040;-75
2022/06/04 11:23:02;;;;;;;6.97;3.13;;;17.50;99.90;;;;;;5033353;28;20140;-74
2022/06/04 11:25:32;;;;;;;8.35;3.10;;;17.50;99.90;;;;;;5026919;28;20200;-76
2022/06/04 11:28:00;;;;;;;9.18;3.40;;;17.50;99.90;;;;;;5039434;28;20033;-75
2022/06/04 11:30:38;;;;;;;7.97;3.60;;;17.50;99.90;;;;;;5046988;28;20071;-75
2022/06/04 11:33:13;;;;;;;6.28;3.95;;;17.60;99.90;;;;;;5039027;28;20044;-76
2022/06/04 11:35:46;;;;;;;8.20;4.43;;;17.70;99.90;;;;;;5041524;28;20041;-77
2022/06/04 11:38:50;;;;;;;8.88;3.90;;;17.70;99.90;;;;;;5040146;28;20071;-71
2022/06/04 11:42:01;;;;;;;11.43;3.78;;;17.80;99.90;;;;;;5058485;28;20388;-72
2022/06/04 11:44:58;;;;;;;6.82;3.90;;;17.80;99.90;;;;;;5034737;28;20049;-71
2022/06/04 11:47:46;;;;;;;10.98;4.15;;;17.80;99.90;;;;;;5045484;28;20043;-71
2022/06/04 11:50:32;;;;;;;7.15;4.15;;;17.90;99.90;;;;;;5048284;28;20460;-71
2022/06/04 11:53:03;;;;;;;10.15;4.00;;;17.90;99.90;;;;;;5045970;28;20041;-71
2022/06/04 11:55:37;;;;;;;9.80;3.45;;;17.90;99.90;;;;;;5039398;28;20166;-72
2022/06/04 11:58:28;;;;;;;7.15;3.47;;;18.00;99.90;;;;;;5044224;28;20040;-71
2022/06/04 12:00:58;;;;;;;11.00;3.80;;;18.00;99.90;;;;;;5031104;28;20130;-71
2022/06/04 12:03:34;;;;;;;7.43;3.60;;;18.00;99.90;;;;;;5048200;28;20337;-71
2022/06/04 12:06:17;;;;;;;11.98;4.00;;;18.00;99.90;;;;;;5043364;28;20029;-71
2022/06/04 12:09:35;;;;;;;11.40;4.00;;;18.00;99.90;;;;;;5039105;28;20056;-70
2022/06/04 12:12:13;;;;;;;8.07;3.58;;;18.00;99.90;;;;;;5012419;28;20056;-71
2022/06/04 12:15:14;;;;;;;7.32;3.58;;;18.10;99.90;;;;;;5036622;28;20493;-71
2022/06/04 12:18:11;;;;;;;10.18;4.00;;;18.20;99.90;;;;;;5041464;28;20088;-71
2022/06/04 12:26:22;;;;;;;10.20;4.00;;;18.40;99.90;;;;;;5046476;28;20045;-72
2022/06/04 12:28:48;;;;;;;13.55;3.78;;;18.50;99.90;;;;;;5039113;28;20041;-73
2022/06/04 12:31:43;;;;;;;10.50;3.63;;;18.60;99.90;;;;;;5042543;28;20056;-73
2022/06/04 12:34:30;;;;;;;12.23;3.60;;;18.60;99.90;;;;;;5043148;28;20079;-72
2022/06/04 12:36:56;;;;;;;6.60;3.50;;;18.70;99.90;;;;;;5041316;28;20049;-73
2022/06/04 12:39:28;;;;;;;10.05;3.72;;;18.80;99.90;;;;;;5047352;28;20044;-73
2022/06/04 12:41:58;;;;;;;12.70;3.70;;;18.80;99.90;;;;;;5044135;28;20452;-73
2022/06/04 12:44:26;;;;;;;10.73;3.45;;;18.80;99.90;;;;;;5049188;28;20037;-75
2022/06/04 12:46:53;;;;;;;19.55;4.20;;;18.90;99.90;;;;;;5048231;28;20075;-75
2022/06/04 12:49:28;;;;;;;9.60;3.53;;;19.00;99.90;;;;;;5040925;28;20128;-75
2022/06/04 12:52:22;;;;;;;9.32;3.30;;;19.10;99.90;;;;;;5047089;28;20064;-74
2022/06/04 12:54:57;;;;;;;8.82;4.35;;;19.10;99.90;;;;;;5040662;28;20408;-75
2022/06/04 12:57:50;;;;;;;12.35;4.00;;;19.10;99.90;;;;;;5066893;28;20524;-75
2022/06/04 13:00:18;;;;;;;10.27;3.50;;;19.10;99.90;;;;;;5044978;28;20384;-75
2022/06/04 13:02:56;;;;;;;9.48;3.53;;;19.20;99.90;;;;;;5047138;28;20140;-78
2022/06/04 13:05:25;;;;;;;5.57;3.22;;;19.20;99.80;;;;;;5049015;28;20094;-75
2022/06/04 13:08:12;;;;;;;10.38;3.72;;;19.10;99.90;;;;;;5048601;28;20064;-75
2022/06/04 13:10:49;;;;;;;11.63;3.58;;;19.10;99.90;;;;;;5034475;28;20048;-76
2022/06/04 13:13:29;;;;;;;8.82;3.65;;;19.10;99.90;;;;;;5051609;28;20044;-75
2022/06/04 13:16:03;;;;;;;6.15;3.70;;;19.10;99.90;;;;;;5050612;28;20051;-74
2022/06/04 13:18:34;;;;;;;5.90;3.13;;;19.10;99.90;;;;;;5043080;28;20421;-76
2022/06/04 13:21:06;;;;;;;13.13;3.38;;;19.20;99.90;;;;;;5076760;28;20045;-76
2022/06/04 13:23:44;;;;;;;9.48;4.00;;;19.20;99.90;;;;;;5065112;28;20400;-76
2022/06/04 13:26:15;;;;;;;10.88;3.55;;;19.40;99.90;;;;;;5050201;28;20049;-76
2022/06/04 13:28:44;;;;;;;14.18;3.85;;;19.50;99.90;;;;;;5042839;28;20127;-75
2022/06/04 13:31:19;;;;;;;14.48;3.55;;;19.60;99.90;;;;;;5048605;28;20049;-75
2022/06/04 13:33:45;;;;;;;12.43;3.50;;;19.80;99.90;;;;;;5045709;28;20053;-78